sensor_id;sensor_type;location;lat;lon;timestamp;P1;durP1;ratioP1;P2;durP2;ratioP2
7835;SDS011;3963;42.658;23.298;2023-09-19T00:02:00;7.03;;;6.10;;
7835;SDS011;3963;42.658;23.298;2023-09-19T00:04:32;10.30;;;7.00;;
7835;SDS011;3963;42.658;23.298;2023-09-19T00:06:58;7.83;;;5.90;;
7835;SDS011;3963;42.658;23.298;2023-09-19T00:09:27;9.27;;;6.47;;
7835;SDS011;3963;42.658;23.298;2023-09-19T00:11:55;8.70;;;6.57;;
7835;SDS011;3963;42.658;23.298;2023-09-19T00:14:24;9.50;;;6.50;;
7835;SDS011;3963;42.658;23.298;2023-09-19T00:16:51;8.23;;;6.47;;
7835;SDS011;3963;42.658;23.298;2023-09-19T00:19:19;9.37;;;6.53;;
7835;SDS011;3963;42.658;23.298;2023-09-19T00:21:48;7.77;;;6.87;;
7835;SDS011;3963;42.658;23.298;2023-09-19T00:24:14;9.10;;;6.70;;
7835;SDS011;3963;42.658;23.298;2023-09-19T00:26:42;9.13;;;6.60;;
7835;SDS011;3963;42.658;23.298;2023-09-19T00:29:11;11.17;;;7.17;;
7835;SDS011;3963;42.658;23.298;2023-09-19T00:31:42;10.77;;;6.30;;
7835;SDS011;3963;42.658;23.298;2023-09-19T00:34:09;10.30;;;6.20;;
7835;SDS011;3963;42.658;23.298;2023-09-19T00:36:36;10.17;;;7.03;;
7835;SDS011;3963;42.658;23.298;2023-09-19T00:39:05;10.33;;;6.97;;
7835;SDS011;3963;42.658;23.298;2023-09-19T00:41:33;11.20;;;6.73;;
7835;SDS011;3963;42.658;23.298;2023-09-19T00:44:01;10.37;;;6.30;;
7835;SDS011;3963;42.658;23.298;2023-09-19T00:46:29;8.20;;;7.00;;
7835;SDS011;3963;42.658;23.298;2023-09-19T00:48:57;7.07;;;6.10;;
7835;SDS011;3963;42.658;23.298;2023-09-19T00:51:24;8.13;;;7.30;;
7835;SDS011;3963;42.658;23.298;2023-09-19T00:53:52;8.33;;;6.73;;
7835;SDS011;3963;42.658;23.298;2023-09-19T00:56:21;8.87;;;6.60;;
7835;SDS011;3963;42.658;23.298;2023-09-19T00:58:48;7.97;;;6.57;;
7835;SDS011;3963;42.658;23.298;2023-09-19T01:01:15;8.93;;;7.30;;
7835;SDS011;3963;42.658;23.298;2023-09-19T01:03:43;11.67;;;7.07;;
7835;SDS011;3963;42.658;23.298;2023-09-19T01:06:11;10.40;;;7.30;;
7835;SDS011;3963;42.658;23.298;2023-09-19T01:08:38;9.60;;;7.17;;
7835;SDS011;3963;42.658;23.298;2023-09-19T01:11:07;9.10;;;7.10;;
7835;SDS011;3963;42.658;23.298;2023-09-19T01:13:44;10.50;;;7.30;;
7835;SDS011;3963;42.658;23.298;2023-09-19T01:16:19;9.20;;;7.10;;
7835;SDS011;3963;42.658;23.298;2023-09-19T01:18:55;11.07;;;6.97;;
7835;SDS011;3963;42.658;23.298;2023-09-19T01:21:35;7.47;;;6.40;;
7835;SDS011;3963;42.658;23.298;2023-09-19T01:24:22;9.30;;;6.60;;
7835;SDS011;3963;42.658;23.298;2023-09-19T01:27:17;10.20;;;6.97;;
7835;SDS011;3963;42.658;23.298;2023-09-19T01:32:32;10.90;;;6.70;;
7835;SDS011;3963;42.658;23.298;2023-09-19T01:35:00;8.77;;;6.60;;
7835;SDS011;3963;42.658;23.298;2023-09-19T01:37:30;9.57;;;6.70;;
7835;SDS011;3963;42.658;23.298;2023-09-19T01:39:58;11.13;;;7.47;;
7835;SDS011;3963;42.658;23.298;2023-09-19T01:42:37;10.33;;;6.50;;
7835;SDS011;3963;42.658;23.298;2023-09-19T01:45:12;9.73;;;7.17;;
7835;SDS011;3963;42.658;23.298;2023-09-19T01:47:46;7.57;;;6.53;;
7835;SDS011;3963;42.658;23.298;2023-09-19T01:50:20;9.03;;;6.83;;
7835;SDS011;3963;42.658;23.298;2023-09-19T01:52:57;12.23;;;7.00;;
7835;SDS011;3963;42.658;23.298;2023-09-19T01:55:29;10.33;;;7.03;;
7835;SDS011;3963;42.658;23.298;2023-09-19T01:58:04;8.63;;;6.40;;
7835;SDS011;3963;42.658;23.298;2023-09-19T02:00:36;9.93;;;6.83;;
7835;SDS011;3963;42.658;23.298;2023-09-19T02:03:08;11.03;;;7.50;;
7835;SDS011;3963;42.658;23.298;2023-09-19T02:05:35;10.77;;;7.70;;
7835;SDS011;3963;42.658;23.298;2023-09-19T02:08:02;9.67;;;7.50;;
7835;SDS011;3963;42.658;23.298;2023-09-19T02:10:30;8.90;;;7.63;;
7835;SDS011;3963;42.658;23.298;2023-09-19T02:12:56;9.10;;;6.20;;
7835;SDS011;3963;42.658;23.298;2023-09-19T02:15:24;9.20;;;7.07;;
7835;SDS011;3963;42.658;23.298;2023-09-19T02:17:52;10.83;;;6.60;;
7835;SDS011;3963;42.658;23.298;2023-09-19T02:20:18;8.57;;;7.50;;
7835;SDS011;3963;42.658;23.298;2023-09-19T02:22:46;10.83;;;7.07;;
7835;SDS011;3963;42.658;23.298;2023-09-19T02:25:15;10.63;;;7.43;;
7835;SDS011;3963;42.658;23.298;2023-09-19T02:27:44;10.07;;;7.20;;
7835;SDS011;3963;42.658;23.298;2023-09-19T02:30:11;10.07;;;7.47;;
7835;SDS011;3963;42.658;23.298;2023-09-19T02:32:41;16.57;;;10.37;;
7835;SDS011;3963;42.658;23.298;2023-09-19T02:35:09;24.27;;;17.67;;
7835;SDS011;3963;42.658;23.298;2023-09-19T02:37:36;16.53;;;11.70;;
7835;SDS011;3963;42.658;23.298;2023-09-19T02:40:03;16.83;;;12.53;;
7835;SDS011;3963;42.658;23.298;2023-09-19T02:42:43;14.33;;;9.87;;
7835;SDS011;3963;42.658;23.298;2023-09-19T02:45:13;15.27;;;10.67;;
7835;SDS011;3963;42.658;23.298;2023-09-19T02:47:41;15.17;;;10.50;;
7835;SDS011;3963;42.658;23.298;2023-09-19T02:50:10;11.53;;;9.10;;
7835;SDS011;3963;42.658;23.298;2023-09-19T02:52:37;11.93;;;8.30;;
7835;SDS011;3963;42.658;23.298;2023-09-19T02:55:04;9.30;;;7.10;;
7835;SDS011;3963;42.658;23.298;2023-09-19T02:57:34;11.60;;;7.70;;
7835;SDS011;3963;42.658;23.298;2023-09-19T03:00:01;14.67;;;8.00;;
7835;SDS011;3963;42.658;23.298;2023-09-19T03:02:28;9.47;;;8.27;;
7835;SDS011;3963;42.658;23.298;2023-09-19T03:04:58;10.00;;;7.53;;
7835;SDS011;3963;42.658;23.298;2023-09-19T03:07:27;9.83;;;7.37;;
7835;SDS011;3963;42.658;23.298;2023-09-19T03:09:54;10.57;;;7.73;;
7835;SDS011;3963;42.658;23.298;2023-09-19T03:12:21;12.10;;;8.03;;
7835;SDS011;3963;42.658;23.298;2023-09-19T03:14:47;12.63;;;7.87;;
7835;SDS011;3963;42.658;23.298;2023-09-19T03:17:15;11.30;;;8.17;;
7835;SDS011;3963;42.658;23.298;2023-09-19T03:19:44;11.27;;;7.60;;
7835;SDS011;3963;42.658;23.298;2023-09-19T03:22:12;9.07;;;7.93;;
7835;SDS011;3963;42.658;23.298;2023-09-19T03:24:40;12.53;;;7.67;;
7835;SDS011;3963;42.658;23.298;2023-09-19T03:27:08;15.73;;;8.10;;
7835;SDS011;3963;42.658;23.298;2023-09-19T03:29:35;11.63;;;7.73;;
7835;SDS011;3963;42.658;23.298;2023-09-19T03:32:02;11.33;;;7.57;;
7835;SDS011;3963;42.658;23.298;2023-09-19T03:34:30;11.37;;;7.47;;
7835;SDS011;3963;42.658;23.298;2023-09-19T03:36:57;11.73;;;7.40;;
7835;SDS011;3963;42.658;23.298;2023-09-19T03:39:24;11.73;;;7.63;;
7835;SDS011;3963;42.658;23.298;2023-09-19T03:41:53;11.50;;;7.87;;
7835;SDS011;3963;42.658;23.298;2023-09-19T03:44:19;11.93;;;7.63;;
7835;SDS011;3963;42.658;23.298;2023-09-19T03:46:47;12.77;;;7.80;;
7835;SDS011;3963;42.658;23.298;2023-09-19T03:49:13;11.90;;;8.50;;
7835;SDS011;3963;42.658;23.298;2023-09-19T03:51:40;10.73;;;8.27;;
7835;SDS011;3963;42.658;23.298;2023-09-19T03:54:07;18.67;;;8.83;;
7835;SDS011;3963;42.658;23.298;2023-09-19T03:56:34;16.47;;;9.73;;
7835;SDS011;3963;42.658;23.298;2023-09-19T03:59:02;18.33;;;9.57;;
7835;SDS011;3963;42.658;23.298;2023-09-19T04:01:29;16.50;;;9.43;;
7835;SDS011;3963;42.658;23.298;2023-09-19T04:03:57;20.47;;;10.20;;
7835;SDS011;3963;42.658;23.298;2023-09-19T04:06:33;17.57;;;10.33;;
7835;SDS011;3963;42.658;23.298;2023-09-19T04:09:00;16.20;;;9.87;;
7835;SDS011;3963;42.658;23.298;2023-09-19T04:11:28;17.40;;;11.07;;
7835;SDS011;3963;42.658;23.298;2023-09-19T04:13:55;24.87;;;12.90;;
7835;SDS011;3963;42.658;23.298;2023-09-19T04:16:23;23.17;;;12.57;;
7835;SDS011;3963;42.658;23.298;2023-09-19T04:18:50;20.53;;;11.70;;
7835;SDS011;3963;42.658;23.298;2023-09-19T04:21:17;16.83;;;10.93;;
7835;SDS011;3963;42.658;23.298;2023-09-19T04:23:44;19.13;;;10.63;;
7835;SDS011;3963;42.658;23.298;2023-09-19T04:26:12;21.07;;;9.83;;
7835;SDS011;3963;42.658;23.298;2023-09-19T04:28:38;13.67;;;9.00;;
7835;SDS011;3963;42.658;23.298;2023-09-19T04:31:05;17.97;;;9.63;;
7835;SDS011;3963;42.658;23.298;2023-09-19T04:33:36;16.00;;;10.40;;
7835;SDS011;3963;42.658;23.298;2023-09-19T04:36:03;18.87;;;10.17;;
7835;SDS011;3963;42.658;23.298;2023-09-19T04:38:32;21.30;;;10.60;;
7835;SDS011;3963;42.658;23.298;2023-09-19T04:40:59;18.73;;;9.20;;
7835;SDS011;3963;42.658;23.298;2023-09-19T04:43:26;16.07;;;9.80;;
7835;SDS011;3963;42.658;23.298;2023-09-19T04:45:53;18.27;;;10.10;;
7835;SDS011;3963;42.658;23.298;2023-09-19T04:48:21;18.27;;;10.13;;
7835;SDS011;3963;42.658;23.298;2023-09-19T04:50:50;15.13;;;9.30;;
7835;SDS011;3963;42.658;23.298;2023-09-19T04:53:17;10.90;;;8.33;;
7835;SDS011;3963;42.658;23.298;2023-09-19T04:55:47;16.40;;;9.43;;
7835;SDS011;3963;42.658;23.298;2023-09-19T04:58:16;13.57;;;8.43;;
7835;SDS011;3963;42.658;23.298;2023-09-19T05:00:44;16.70;;;9.00;;
7835;SDS011;3963;42.658;23.298;2023-09-19T05:03:11;15.50;;;8.40;;
7835;SDS011;3963;42.658;23.298;2023-09-19T05:05:38;13.73;;;9.00;;
7835;SDS011;3963;42.658;23.298;2023-09-19T05:08:09;12.93;;;8.20;;
7835;SDS011;3963;42.658;23.298;2023-09-19T05:10:36;17.70;;;9.03;;
7835;SDS011;3963;42.658;23.298;2023-09-19T05:13:04;11.03;;;8.40;;
7835;SDS011;3963;42.658;23.298;2023-09-19T05:15:32;12.80;;;8.63;;
7835;SDS011;3963;42.658;23.298;2023-09-19T05:18:00;12.70;;;8.00;;
7835;SDS011;3963;42.658;23.298;2023-09-19T05:20:28;11.93;;;8.53;;
7835;SDS011;3963;42.658;23.298;2023-09-19T05:23:01;10.67;;;7.93;;
7835;SDS011;3963;42.658;23.298;2023-09-19T05:25:30;13.70;;;8.80;;
7835;SDS011;3963;42.658;23.298;2023-09-19T05:27:57;13.80;;;8.30;;
7835;SDS011;3963;42.658;23.298;2023-09-19T05:30:25;12.70;;;8.30;;
7835;SDS011;3963;42.658;23.298;2023-09-19T05:32:54;12.83;;;8.80;;
7835;SDS011;3963;42.658;23.298;2023-09-19T05:35:22;11.87;;;8.67;;
7835;SDS011;3963;42.658;23.298;2023-09-19T05:37:50;11.97;;;7.50;;
7835;SDS011;3963;42.658;23.298;2023-09-19T05:40:17;19.73;;;8.13;;
7835;SDS011;3963;42.658;23.298;2023-09-19T05:42:46;13.87;;;8.43;;
7835;SDS011;3963;42.658;23.298;2023-09-19T05:45:13;12.57;;;7.57;;
7835;SDS011;3963;42.658;23.298;2023-09-19T05:47:44;11.90;;;7.73;;
7835;SDS011;3963;42.658;23.298;2023-09-19T05:50:12;12.63;;;8.37;;
7835;SDS011;3963;42.658;23.298;2023-09-19T05:52:40;14.57;;;8.80;;
7835;SDS011;3963;42.658;23.298;2023-09-19T05:55:09;15.93;;;8.37;;
7835;SDS011;3963;42.658;23.298;2023-09-19T05:57:36;14.80;;;8.40;;
7835;SDS011;3963;42.658;23.298;2023-09-19T06:00:06;11.90;;;7.80;;
7835;SDS011;3963;42.658;23.298;2023-09-19T06:02:36;14.50;;;8.23;;
7835;SDS011;3963;42.658;23.298;2023-09-19T06:05:03;11.23;;;7.93;;
7835;SDS011;3963;42.658;23.298;2023-09-19T06:07:31;12.70;;;7.87;;
7835;SDS011;3963;42.658;23.298;2023-09-19T06:10:02;16.60;;;7.67;;
7835;SDS011;3963;42.658;23.298;2023-09-19T06:12:30;14.30;;;8.50;;
7835;SDS011;3963;42.658;23.298;2023-09-19T06:14:58;14.17;;;7.67;;
7835;SDS011;3963;42.658;23.298;2023-09-19T06:17:26;14.07;;;7.10;;
7835;SDS011;3963;42.658;23.298;2023-09-19T06:19:54;12.37;;;7.67;;
7835;SDS011;3963;42.658;23.298;2023-09-19T06:22:21;12.80;;;7.20;;
7835;SDS011;3963;42.658;23.298;2023-09-19T06:24:49;11.73;;;7.00;;
7835;SDS011;3963;42.658;23.298;2023-09-19T06:27:16;13.20;;;7.03;;
7835;SDS011;3963;42.658;23.298;2023-09-19T06:29:42;11.70;;;6.90;;
7835;SDS011;3963;42.658;23.298;2023-09-19T06:32:09;11.83;;;6.60;;
7835;SDS011;3963;42.658;23.298;2023-09-19T06:34:37;10.20;;;7.10;;
7835;SDS011;3963;42.658;23.298;2023-09-19T06:37:08;11.03;;;7.77;;
7835;SDS011;3963;42.658;23.298;2023-09-19T06:39:35;12.83;;;6.13;;
7835;SDS011;3963;42.658;23.298;2023-09-19T06:42:02;14.60;;;7.30;;
7835;SDS011;3963;42.658;23.298;2023-09-19T06:44:29;12.40;;;7.20;;
7835;SDS011;3963;42.658;23.298;2023-09-19T06:46:57;9.27;;;7.27;;
7835;SDS011;3963;42.658;23.298;2023-09-19T06:49:23;11.37;;;7.80;;
7835;SDS011;3963;42.658;23.298;2023-09-19T06:51:51;11.90;;;7.00;;
7835;SDS011;3963;42.658;23.298;2023-09-19T06:54:20;13.00;;;7.17;;
7835;SDS011;3963;42.658;23.298;2023-09-19T06:56:47;12.27;;;7.40;;
7835;SDS011;3963;42.658;23.298;2023-09-19T06:59:14;15.50;;;7.03;;
7835;SDS011;3963;42.658;23.298;2023-09-19T07:01:41;10.60;;;6.67;;
7835;SDS011;3963;42.658;23.298;2023-09-19T07:04:09;10.80;;;6.73;;
7835;SDS011;3963;42.658;23.298;2023-09-19T07:06:38;13.90;;;7.03;;
7835;SDS011;3963;42.658;23.298;2023-09-19T07:09:06;10.10;;;6.10;;
7835;SDS011;3963;42.658;23.298;2023-09-19T07:11:33;11.83;;;6.67;;
7835;SDS011;3963;42.658;23.298;2023-09-19T07:14:00;10.83;;;6.60;;
7835;SDS011;3963;42.658;23.298;2023-09-19T07:16:30;9.60;;;6.17;;
7835;SDS011;3963;42.658;23.298;2023-09-19T07:18:57;11.20;;;6.43;;
7835;SDS011;3963;42.658;23.298;2023-09-19T07:21:24;10.80;;;6.80;;
7835;SDS011;3963;42.658;23.298;2023-09-19T07:23:51;14.67;;;7.77;;
7835;SDS011;3963;42.658;23.298;2023-09-19T07:26:19;11.27;;;6.77;;
7835;SDS011;3963;42.658;23.298;2023-09-19T07:28:46;9.13;;;6.23;;
7835;SDS011;3963;42.658;23.298;2023-09-19T07:31:12;11.27;;;5.53;;
7835;SDS011;3963;42.658;23.298;2023-09-19T07:33:39;9.13;;;5.60;;
7835;SDS011;3963;42.658;23.298;2023-09-19T07:36:09;8.67;;;5.33;;
7835;SDS011;3963;42.658;23.298;2023-09-19T07:38:38;8.37;;;4.80;;
7835;SDS011;3963;42.658;23.298;2023-09-19T07:41:05;7.57;;;5.17;;
7835;SDS011;3963;42.658;23.298;2023-09-19T07:43:35;8.23;;;5.87;;
7835;SDS011;3963;42.658;23.298;2023-09-19T07:46:04;8.47;;;5.77;;
7835;SDS011;3963;42.658;23.298;2023-09-19T07:48:32;10.00;;;5.90;;
7835;SDS011;3963;42.658;23.298;2023-09-19T07:51:01;12.00;;;5.57;;
7835;SDS011;3963;42.658;23.298;2023-09-19T07:53:29;12.07;;;5.70;;
7835;SDS011;3963;42.658;23.298;2023-09-19T07:56:02;7.17;;;5.97;;
7835;SDS011;3963;42.658;23.298;2023-09-19T07:58:30;9.37;;;5.80;;
7835;SDS011;3963;42.658;23.298;2023-09-19T08:01:03;10.73;;;5.67;;
7835;SDS011;3963;42.658;23.298;2023-09-19T08:03:31;11.77;;;6.67;;
7835;SDS011;3963;42.658;23.298;2023-09-19T08:05:58;10.07;;;5.97;;
7835;SDS011;3963;42.658;23.298;2023-09-19T08:08:25;9.13;;;6.07;;
7835;SDS011;3963;42.658;23.298;2023-09-19T08:10:53;9.83;;;5.83;;
7835;SDS011;3963;42.658;23.298;2023-09-19T08:13:21;9.53;;;5.87;;
7835;SDS011;3963;42.658;23.298;2023-09-19T08:15:48;11.43;;;6.37;;
7835;SDS011;3963;42.658;23.298;2023-09-19T08:18:17;8.33;;;5.63;;
7835;SDS011;3963;42.658;23.298;2023-09-19T08:20:48;6.63;;;5.40;;
7835;SDS011;3963;42.658;23.298;2023-09-19T08:23:15;8.57;;;6.17;;
7835;SDS011;3963;42.658;23.298;2023-09-19T08:25:43;12.07;;;6.23;;
7835;SDS011;3963;42.658;23.298;2023-09-19T08:28:10;9.53;;;6.40;;
7835;SDS011;3963;42.658;23.298;2023-09-19T08:30:42;11.77;;;6.27;;
7835;SDS011;3963;42.658;23.298;2023-09-19T08:33:09;10.60;;;6.43;;
7835;SDS011;3963;42.658;23.298;2023-09-19T08:35:37;10.47;;;6.37;;
7835;SDS011;3963;42.658;23.298;2023-09-19T08:38:06;13.00;;;6.97;;
7835;SDS011;3963;42.658;23.298;2023-09-19T08:40:36;10.13;;;6.03;;
7835;SDS011;3963;42.658;23.298;2023-09-19T08:43:04;11.53;;;6.30;;
7835;SDS011;3963;42.658;23.298;2023-09-19T08:45:32;12.03;;;7.03;;
7835;SDS011;3963;42.658;23.298;2023-09-19T08:48:00;10.43;;;6.90;;
7835;SDS011;3963;42.658;23.298;2023-09-19T08:50:42;12.10;;;6.00;;
7835;SDS011;3963;42.658;23.298;2023-09-19T08:53:15;11.77;;;6.10;;
7835;SDS011;3963;42.658;23.298;2023-09-19T08:55:48;11.10;;;6.27;;
7835;SDS011;3963;42.658;23.298;2023-09-19T08:58:19;8.97;;;5.97;;
7835;SDS011;3963;42.658;23.298;2023-09-19T09:00:48;11.63;;;6.23;;
7835;SDS011;3963;42.658;23.298;2023-09-19T09:03:19;7.00;;;5.83;;
7835;SDS011;3963;42.658;23.298;2023-09-19T09:05:49;9.60;;;5.70;;
7835;SDS011;3963;42.658;23.298;2023-09-19T09:08:17;8.13;;;5.83;;
7835;SDS011;3963;42.658;23.298;2023-09-19T09:10:46;7.00;;;5.13;;
7835;SDS011;3963;42.658;23.298;2023-09-19T09:13:14;8.37;;;5.47;;
7835;SDS011;3963;42.658;23.298;2023-09-19T09:15:41;11.93;;;5.80;;
7835;SDS011;3963;42.658;23.298;2023-09-19T09:18:10;15.27;;;6.10;;
7835;SDS011;3963;42.658;23.298;2023-09-19T09:20:36;11.97;;;5.50;;
7835;SDS011;3963;42.658;23.298;2023-09-19T09:23:05;14.27;;;5.37;;
7835;SDS011;3963;42.658;23.298;2023-09-19T09:25:47;10.87;;;6.70;;
7835;SDS011;3963;42.658;23.298;2023-09-19T09:28:22;9.37;;;5.60;;
7835;SDS011;3963;42.658;23.298;2023-09-19T09:30:51;9.17;;;5.17;;
7835;SDS011;3963;42.658;23.298;2023-09-19T09:33:19;10.27;;;5.70;;
7835;SDS011;3963;42.658;23.298;2023-09-19T09:35:50;8.87;;;6.03;;
7835;SDS011;3963;42.658;23.298;2023-09-19T09:38:23;12.63;;;6.40;;
7835;SDS011;3963;42.658;23.298;2023-09-19T09:40:57;8.57;;;5.97;;
7835;SDS011;3963;42.658;23.298;2023-09-19T09:43:28;11.93;;;5.63;;
7835;SDS011;3963;42.658;23.298;2023-09-19T09:49:05;8.83;;;5.73;;
7835;SDS011;3963;42.658;23.298;2023-09-19T09:51:44;11.27;;;6.50;;
7835;SDS011;3963;42.658;23.298;2023-09-19T09:54:24;10.33;;;5.67;;
7835;SDS011;3963;42.658;23.298;2023-09-19T09:56:58;10.73;;;6.33;;
7835;SDS011;3963;42.658;23.298;2023-09-19T09:59:45;12.20;;;6.33;;
7835;SDS011;3963;42.658;23.298;2023-09-19T10:02:14;15.57;;;6.43;;
7835;SDS011;3963;42.658;23.298;2023-09-19T10:04:47;14.10;;;6.77;;
7835;SDS011;3963;42.658;23.298;2023-09-19T10:07:27;9.80;;;6.53;;
7835;SDS011;3963;42.658;23.298;2023-09-19T10:10:02;10.30;;;7.17;;
7835;SDS011;3963;42.658;23.298;2023-09-19T10:12:51;10.27;;;6.40;;
7835;SDS011;3963;42.658;23.298;2023-09-19T10:15:21;12.53;;;6.70;;
7835;SDS011;3963;42.658;23.298;2023-09-19T10:17:55;13.03;;;7.00;;
7835;SDS011;3963;42.658;23.298;2023-09-19T10:20:24;9.97;;;6.17;;
7835;SDS011;3963;42.658;23.298;2023-09-19T10:23:03;8.90;;;5.97;;
7835;SDS011;3963;42.658;23.298;2023-09-19T10:25:36;9.77;;;5.93;;
7835;SDS011;3963;42.658;23.298;2023-09-19T10:28:05;9.97;;;6.53;;
7835;SDS011;3963;42.658;23.298;2023-09-19T10:30:36;11.33;;;6.33;;
7835;SDS011;3963;42.658;23.298;2023-09-19T10:33:08;9.20;;;6.00;;
7835;SDS011;3963;42.658;23.298;2023-09-19T10:35:36;10.33;;;6.17;;
7835;SDS011;3963;42.658;23.298;2023-09-19T10:38:05;6.83;;;5.63;;
7835;SDS011;3963;42.658;23.298;2023-09-19T10:40:34;9.30;;;5.50;;
7835;SDS011;3963;42.658;23.298;2023-09-19T10:43:08;7.90;;;5.73;;
7835;SDS011;3963;42.658;23.298;2023-09-19T10:45:38;10.93;;;5.50;;
7835;SDS011;3963;42.658;23.298;2023-09-19T10:48:06;8.50;;;5.83;;
7835;SDS011;3963;42.658;23.298;2023-09-19T10:50:35;8.50;;;5.93;;
7835;SDS011;3963;42.658;23.298;2023-09-19T10:53:09;8.73;;;5.53;;
7835;SDS011;3963;42.658;23.298;2023-09-19T10:55:39;10.70;;;7.17;;
7835;SDS011;3963;42.658;23.298;2023-09-19T10:58:06;9.00;;;5.90;;
7835;SDS011;3963;42.658;23.298;2023-09-19T11:00:50;9.43;;;6.00;;
7835;SDS011;3963;42.658;23.298;2023-09-19T11:03:19;8.90;;;6.03;;
7835;SDS011;3963;42.658;23.298;2023-09-19T11:06:07;12.77;;;6.07;;
7835;SDS011;3963;42.658;23.298;2023-09-19T11:08:51;11.50;;;6.07;;
7835;SDS011;3963;42.658;23.298;2023-09-19T11:11:45;15.97;;;6.00;;
7835;SDS011;3963;42.658;23.298;2023-09-19T11:14:28;10.93;;;6.27;;
7835;SDS011;3963;42.658;23.298;2023-09-19T11:25:48;9.57;;;5.97;;
7835;SDS011;3963;42.658;23.298;2023-09-19T11:28:31;10.43;;;6.07;;
7835;SDS011;3963;42.658;23.298;2023-09-19T11:30:58;10.30;;;5.53;;
7835;SDS011;3963;42.658;23.298;2023-09-19T11:33:45;11.27;;;5.40;;
7835;SDS011;3963;42.658;23.298;2023-09-19T11:36:15;10.90;;;5.77;;
7835;SDS011;3963;42.658;23.298;2023-09-19T11:41:40;11.87;;;5.70;;
7835;SDS011;3963;42.658;23.298;2023-09-19T11:47:06;11.33;;;6.40;;
7835;SDS011;3963;42.658;23.298;2023-09-19T11:49:35;9.90;;;5.57;;
7835;SDS011;3963;42.658;23.298;2023-09-19T11:52:07;11.43;;;5.93;;
7835;SDS011;3963;42.658;23.298;2023-09-19T11:54:35;11.70;;;5.63;;
7835;SDS011;3963;42.658;23.298;2023-09-19T11:57:05;8.43;;;5.27;;
7835;SDS011;3963;42.658;23.298;2023-09-19T11:59:37;8.50;;;5.47;;
7835;SDS011;3963;42.658;23.298;2023-09-19T12:02:05;9.40;;;5.67;;
7835;SDS011;3963;42.658;23.298;2023-09-19T12:04:36;15.90;;;5.70;;
7835;SDS011;3963;42.658;23.298;2023-09-19T12:07:04;7.60;;;5.40;;
7835;SDS011;3963;42.658;23.298;2023-09-19T12:09:36;10.27;;;5.57;;
7835;SDS011;3963;42.658;23.298;2023-09-19T12:12:05;7.87;;;6.17;;
7835;SDS011;3963;42.658;23.298;2023-09-19T12:14:32;11.47;;;6.10;;
7835;SDS011;3963;42.658;23.298;2023-09-19T12:17:01;7.27;;;5.57;;
7835;SDS011;3963;42.658;23.298;2023-09-19T12:19:29;8.33;;;5.37;;
7835;SDS011;3963;42.658;23.298;2023-09-19T12:21:57;6.83;;;5.77;;
7835;SDS011;3963;42.658;23.298;2023-09-19T12:24:29;8.23;;;5.30;;
7835;SDS011;3963;42.658;23.298;2023-09-19T12:27:00;11.97;;;5.60;;
7835;SDS011;3963;42.658;23.298;2023-09-19T12:29:29;7.60;;;5.77;;
7835;SDS011;3963;42.658;23.298;2023-09-19T12:31:57;8.33;;;5.57;;
7835;SDS011;3963;42.658;23.298;2023-09-19T12:34:30;5.80;;;5.13;;
7835;SDS011;3963;42.658;23.298;2023-09-19T12:37:03;6.67;;;4.97;;
7835;SDS011;3963;42.658;23.298;2023-09-19T12:39:37;9.57;;;6.07;;
7835;SDS011;3963;42.658;23.298;2023-09-19T12:42:09;7.97;;;5.63;;
7835;SDS011;3963;42.658;23.298;2023-09-19T12:44:40;11.17;;;5.63;;
7835;SDS011;3963;42.658;23.298;2023-09-19T12:47:09;10.53;;;5.13;;
7835;SDS011;3963;42.658;23.298;2023-09-19T12:52:43;6.13;;;5.40;;
7835;SDS011;3963;42.658;23.298;2023-09-19T12:55:24;9.10;;;5.67;;
7835;SDS011;3963;42.658;23.298;2023-09-19T12:57:56;7.83;;;5.13;;
7835;SDS011;3963;42.658;23.298;2023-09-19T13:00:31;7.03;;;4.97;;
7835;SDS011;3963;42.658;23.298;2023-09-19T13:05:55;11.13;;;5.67;;
7835;SDS011;3963;42.658;23.298;2023-09-19T13:08:27;9.90;;;5.17;;
7835;SDS011;3963;42.658;23.298;2023-09-19T13:11:03;8.00;;;5.10;;
7835;SDS011;3963;42.658;23.298;2023-09-19T13:13:39;8.47;;;5.33;;
7835;SDS011;3963;42.658;23.298;2023-09-19T13:16:07;11.37;;;5.87;;
7835;SDS011;3963;42.658;23.298;2023-09-19T13:18:43;9.27;;;4.93;;
7835;SDS011;3963;42.658;23.298;2023-09-19T13:21:13;8.73;;;6.97;;
7835;SDS011;3963;42.658;23.298;2023-09-19T13:23:52;11.67;;;5.83;;
7835;SDS011;3963;42.658;23.298;2023-09-19T13:26:24;9.87;;;5.13;;
7835;SDS011;3963;42.658;23.298;2023-09-19T13:28:50;7.90;;;4.80;;
7835;SDS011;3963;42.658;23.298;2023-09-19T13:31:17;7.27;;;5.00;;
7835;SDS011;3963;42.658;23.298;2023-09-19T13:33:44;7.63;;;5.10;;
7835;SDS011;3963;42.658;23.298;2023-09-19T13:36:13;7.07;;;4.83;;
7835;SDS011;3963;42.658;23.298;2023-09-19T13:38:40;8.53;;;5.53;;
7835;SDS011;3963;42.658;23.298;2023-09-19T13:41:08;9.03;;;4.83;;
7835;SDS011;3963;42.658;23.298;2023-09-19T13:43:35;8.27;;;4.77;;
7835;SDS011;3963;42.658;23.298;2023-09-19T13:46:04;6.70;;;4.60;;
7835;SDS011;3963;42.658;23.298;2023-09-19T13:48:32;5.33;;;4.37;;
7835;SDS011;3963;42.658;23.298;2023-09-19T13:51:01;8.43;;;4.97;;
7835;SDS011;3963;42.658;23.298;2023-09-19T13:53:29;6.97;;;5.23;;
7835;SDS011;3963;42.658;23.298;2023-09-19T13:55:56;7.03;;;5.10;;
7835;SDS011;3963;42.658;23.298;2023-09-19T13:58:23;8.60;;;5.40;;
7835;SDS011;3963;42.658;23.298;2023-09-19T14:00:50;6.30;;;4.87;;
7835;SDS011;3963;42.658;23.298;2023-09-19T14:03:20;7.60;;;5.07;;
7835;SDS011;3963;42.658;23.298;2023-09-19T14:05:47;8.77;;;5.33;;
7835;SDS011;3963;42.658;23.298;2023-09-19T14:08:16;6.90;;;4.97;;
7835;SDS011;3963;42.658;23.298;2023-09-19T14:10:45;7.90;;;5.10;;
7835;SDS011;3963;42.658;23.298;2023-09-19T14:13:12;6.93;;;4.90;;
7835;SDS011;3963;42.658;23.298;2023-09-19T14:15:40;6.10;;;4.70;;
7835;SDS011;3963;42.658;23.298;2023-09-19T14:18:07;5.13;;;4.33;;
7835;SDS011;3963;42.658;23.298;2023-09-19T14:20:37;6.77;;;5.10;;
7835;SDS011;3963;42.658;23.298;2023-09-19T14:23:05;7.53;;;4.80;;
7835;SDS011;3963;42.658;23.298;2023-09-19T14:25:33;7.33;;;5.40;;
7835;SDS011;3963;42.658;23.298;2023-09-19T14:28:02;7.27;;;5.40;;
7835;SDS011;3963;42.658;23.298;2023-09-19T14:30:29;6.47;;;5.70;;
7835;SDS011;3963;42.658;23.298;2023-09-19T14:32:56;10.17;;;6.63;;
7835;SDS011;3963;42.658;23.298;2023-09-19T14:35:23;10.07;;;6.93;;
7835;SDS011;3963;42.658;23.298;2023-09-19T14:37:50;11.63;;;7.53;;
7835;SDS011;3963;42.658;23.298;2023-09-19T14:40:17;18.23;;;14.33;;
7835;SDS011;3963;42.658;23.298;2023-09-19T14:42:45;18.07;;;14.33;;
7835;SDS011;3963;42.658;23.298;2023-09-19T14:45:13;22.07;;;14.47;;
7835;SDS011;3963;42.658;23.298;2023-09-19T14:47:46;24.77;;;16.07;;
7835;SDS011;3963;42.658;23.298;2023-09-19T14:50:13;18.47;;;12.10;;
7835;SDS011;3963;42.658;23.298;2023-09-19T14:52:40;13.93;;;11.17;;
7835;SDS011;3963;42.658;23.298;2023-09-19T14:55:07;18.93;;;13.10;;
7835;SDS011;3963;42.658;23.298;2023-09-19T14:57:40;20.97;;;15.10;;
7835;SDS011;3963;42.658;23.298;2023-09-19T15:00:09;21.20;;;15.40;;
7835;SDS011;3963;42.658;23.298;2023-09-19T15:02:39;25.27;;;17.17;;
7835;SDS011;3963;42.658;23.298;2023-09-19T15:05:06;26.87;;;16.87;;
7835;SDS011;3963;42.658;23.298;2023-09-19T15:07:34;22.17;;;14.73;;
7835;SDS011;3963;42.658;23.298;2023-09-19T15:10:01;23.73;;;15.27;;
7835;SDS011;3963;42.658;23.298;2023-09-19T15:12:32;22.50;;;14.67;;
7835;SDS011;3963;42.658;23.298;2023-09-19T15:15:01;21.70;;;12.67;;
7835;SDS011;3963;42.658;23.298;2023-09-19T15:17:30;21.73;;;12.77;;
7835;SDS011;3963;42.658;23.298;2023-09-19T15:19:58;20.73;;;12.77;;
7835;SDS011;3963;42.658;23.298;2023-09-19T15:22:25;18.17;;;10.27;;
7835;SDS011;3963;42.658;23.298;2023-09-19T15:24:52;9.00;;;6.50;;
7835;SDS011;3963;42.658;23.298;2023-09-19T15:27:18;9.87;;;5.87;;
7835;SDS011;3963;42.658;23.298;2023-09-19T15:29:45;9.83;;;5.90;;
7835;SDS011;3963;42.658;23.298;2023-09-19T15:32:12;8.27;;;5.97;;